sensor_id;sensor_type;location;lat;lon;timestamp;temperature;humidity
39347;DHT22;26262;49.836;6.632;2024-01-30T00:02:06;2.10;99.90
39347;DHT22;26262;49.836;6.632;2024-01-30T00:04:31;2.00;99.90
39347;DHT22;26262;49.836;6.632;2024-01-30T00:06:57;2.10;99.90
39347;DHT22;26262;49.836;6.632;2024-01-30T00:09:22;2.00;99.90
39347;DHT22;26262;49.836;6.632;2024-01-30T00:11:48;2.00;99.90
39347;DHT22;26262;49.836;6.632;2024-01-30T00:14:13;2.00;99.90
39347;DHT22;26262;49.836;6.632;2024-01-30T00:16:39;2.00;99.90
39347;DHT22;26262;49.836;6.632;2024-01-30T00:19:04;2.00;99.90
39347;DHT22;26262;49.836;6.632;2024-01-30T00:21:30;1.90;99.90
39347;DHT22;26262;49.836;6.632;2024-01-30T00:23:55;1.90;99.90
39347;DHT22;26262;49.836;6.632;2024-01-30T00:26:20;1.90;99.90
39347;DHT22;26262;49.836;6.632;2024-01-30T00:28:46;1.90;99.90
39347;DHT22;26262;49.836;6.632;2024-01-30T00:31:11;1.90;99.90
39347;DHT22;26262;49.836;6.632;2024-01-30T00:33:40;1.90;99.90
39347;DHT22;26262;49.836;6.632;2024-01-30T00:36:07;1.80;99.90
39347;DHT22;26262;49.836;6.632;2024-01-30T00:38:32;1.90;99.90
39347;DHT22;26262;49.836;6.632;2024-01-30T00:40:58;1.90;99.90
39347;DHT22;26262;49.836;6.632;2024-01-30T00:43:23;1.90;99.90
39347;DHT22;26262;49.836;6.632;2024-01-30T00:45:50;1.90;99.90
39347;DHT22;26262;49.836;6.632;2024-01-30T00:48:17;1.90;99.90
39347;DHT22;26262;49.836;6.632;2024-01-30T00:50:42;1.90;99.90
39347;DHT22;26262;49.836;6.632;2024-01-30T00:53:08;1.90;99.90
39347;DHT22;26262;49.836;6.632;2024-01-30T00:55:33;1.90;99.90
39347;DHT22;26262;49.836;6.632;2024-01-30T00:57:59;1.90;99.90
39347;DHT22;26262;49.836;6.632;2024-01-30T01:00:24;1.90;99.90
39347;DHT22;26262;49.836;6.632;2024-01-30T01:02:54;1.90;99.90
39347;DHT22;26262;49.836;6.632;2024-01-30T01:05:20;1.90;99.90
39347;DHT22;26262;49.836;6.632;2024-01-30T01:07:45;1.90;99.90
39347;DHT22;26262;49.836;6.632;2024-01-30T01:10:12;1.80;99.90
39347;DHT22;26262;49.836;6.632;2024-01-30T01:12:39;1.90;99.90
39347;DHT22;26262;49.836;6.632;2024-01-30T01:15:05;1.90;99.90
39347;DHT22;26262;49.836;6.632;2024-01-30T01:17:30;1.90;99.90
39347;DHT22;26262;49.836;6.632;2024-01-30T01:19:56;1.90;99.90
39347;DHT22;26262;49.836;6.632;2024-01-30T01:22:22;1.90;99.90
39347;DHT22;26262;49.836;6.632;2024-01-30T01:24:48;1.90;99.90
39347;DHT22;26262;49.836;6.632;2024-01-30T01:27:13;1.90;99.90
39347;DHT22;26262;49.836;6.632;2024-01-30T01:29:38;1.90;99.90
39347;DHT22;26262;49.836;6.632;2024-01-30T01:32:04;1.90;99.90
39347;DHT22;26262;49.836;6.632;2024-01-30T01:34:29;1.90;99.90
39347;DHT22;26262;49.836;6.632;2024-01-30T01:36:55;1.90;99.90
39347;DHT22;26262;49.836;6.632;2024-01-30T01:39:21;2.00;99.90
39347;DHT22;26262;49.836;6.632;2024-01-30T01:41:48;1.90;99.90
39347;DHT22;26262;49.836;6.632;2024-01-30T01:44:13;1.90;99.90
39347;DHT22;26262;49.836;6.632;2024-01-30T01:46:39;1.90;99.90
39347;DHT22;26262;49.836;6.632;2024-01-30T01:49:05;1.90;99.90
39347;DHT22;26262;49.836;6.632;2024-01-30T01:51:31;1.90;99.90
39347;DHT22;26262;49.836;6.632;2024-01-30T01:53:56;2.00;99.90
39347;DHT22;26262;49.836;6.632;2024-01-30T01:56:22;1.90;99.90
39347;DHT22;26262;49.836;6.632;2024-01-30T01:58:48;1.90;99.90
39347;DHT22;26262;49.836;6.632;2024-01-30T02:01:14;1.90;99.90
39347;DHT22;26262;49.836;6.632;2024-01-30T02:03:41;1.90;99.90
39347;DHT22;26262;49.836;6.632;2024-01-30T02:06:07;1.80;99.90
39347;DHT22;26262;49.836;6.632;2024-01-30T02:08:32;1.90;99.90
39347;DHT22;26262;49.836;6.632;2024-01-30T02:10:58;1.90;99.90
39347;DHT22;26262;49.836;6.632;2024-01-30T02:13:24;1.90;99.90
39347;DHT22;26262;49.836;6.632;2024-01-30T02:15:51;1.90;99.90
39347;DHT22;26262;49.836;6.632;2024-01-30T02:18:16;1.80;99.90
39347;DHT22;26262;49.836;6.632;2024-01-30T02:20:42;1.80;99.90
39347;DHT22;26262;49.836;6.632;2024-01-30T02:23:09;1.80;99.90
39347;DHT22;26262;49.836;6.632;2024-01-30T02:25:41;1.80;99.90
39347;DHT22;26262;49.836;6.632;2024-01-30T02:28:12;1.80;99.90
39347;DHT22;26262;49.836;6.632;2024-01-30T02:30:38;1.70;99.90
39347;DHT22;26262;49.836;6.632;2024-01-30T02:33:04;1.70;99.90
39347;DHT22;26262;49.836;6.632;2024-01-30T02:35:29;1.80;99.90
39347;DHT22;26262;49.836;6.632;2024-01-30T02:37:54;1.70;99.90
39347;DHT22;26262;49.836;6.632;2024-01-30T02:40:20;1.80;99.90
39347;DHT22;26262;49.836;6.632;2024-01-30T02:42:45;1.80;99.90
39347;DHT22;26262;49.836;6.632;2024-01-30T02:45:11;1.80;99.90
39347;DHT22;26262;49.836;6.632;2024-01-30T02:47:37;1.70;99.90
39347;DHT22;26262;49.836;6.632;2024-01-30T02:50:02;1.70;99.90
39347;DHT22;26262;49.836;6.632;2024-01-30T02:52:28;1.70;99.90
39347;DHT22;26262;49.836;6.632;2024-01-30T02:54:53;1.70;99.90
39347;DHT22;26262;49.836;6.632;2024-01-30T02:57:19;1.70;99.90
39347;DHT22;26262;49.836;6.632;2024-01-30T02:59:44;1.70;99.90
39347;DHT22;26262;49.836;6.632;2024-01-30T03:02:09;1.60;99.90
39347;DHT22;26262;49.836;6.632;2024-01-30T03:04:35;1.50;99.90
39347;DHT22;26262;49.836;6.632;2024-01-30T03:07:00;1.40;99.90
39347;DHT22;26262;49.836;6.632;2024-01-30T03:09:26;1.40;99.90
39347;DHT22;26262;49.836;6.632;2024-01-30T03:11:51;1.50;99.90
39347;DHT22;26262;49.836;6.632;2024-01-30T03:14:17;1.50;99.90
39347;DHT22;26262;49.836;6.632;2024-01-30T03:16:42;1.50;99.90
39347;DHT22;26262;49.836;6.632;2024-01-30T03:19:07;1.50;99.90
39347;DHT22;26262;49.836;6.632;2024-01-30T03:21:34;1.50;99.90
39347;DHT22;26262;49.836;6.632;2024-01-30T03:24:00;1.60;99.90
39347;DHT22;26262;49.836;6.632;2024-01-30T03:26:25;1.50;99.90
39347;DHT22;26262;49.836;6.632;2024-01-30T03:28:50;1.60;99.90
39347;DHT22;26262;49.836;6.632;2024-01-30T03:31:16;1.60;99.90
39347;DHT22;26262;49.836;6.632;2024-01-30T03:33:41;1.60;99.90
39347;DHT22;26262;49.836;6.632;2024-01-30T03:36:07;1.60;99.90
39347;DHT22;26262;49.836;6.632;2024-01-30T03:38:33;1.50;99.90
39347;DHT22;26262;49.836;6.632;2024-01-30T03:40:58;1.50;99.90
39347;DHT22;26262;49.836;6.632;2024-01-30T03:43:24;1.50;99.90
39347;DHT22;26262;49.836;6.632;2024-01-30T03:45:49;1.50;99.90
39347;DHT22;26262;49.836;6.632;2024-01-30T03:48:15;1.60;99.90
39347;DHT22;26262;49.836;6.632;2024-01-30T03:50:40;1.60;99.90
39347;DHT22;26262;49.836;6.632;2024-01-30T03:53:06;1.50;99.90
39347;DHT22;26262;49.836;6.632;2024-01-30T03:55:31;1.60;99.90
39347;DHT22;26262;49.836;6.632;2024-01-30T03:57:56;1.50;99.90
39347;DHT22;26262;49.836;6.632;2024-01-30T04:00:23;1.60;99.90
39347;DHT22;26262;49.836;6.632;2024-01-30T04:02:48;1.50;99.90
39347;DHT22;26262;49.836;6.632;2024-01-30T04:05:14;1.50;99.90
39347;DHT22;26262;49.836;6.632;2024-01-30T04:07:39;1.30;99.90
39347;DHT22;26262;49.836;6.632;2024-01-30T04:10:05;1.30;99.90
39347;DHT22;26262;49.836;6.632;2024-01-30T04:12:33;1.20;99.90
39347;DHT22;26262;49.836;6.632;2024-01-30T04:14:58;1.30;99.90
39347;DHT22;26262;49.836;6.632;2024-01-30T04:17:24;1.30;99.90
39347;DHT22;26262;49.836;6.632;2024-01-30T04:19:49;1.40;99.90
39347;DHT22;26262;49.836;6.632;2024-01-30T04:22:15;1.40;99.90
39347;DHT22;26262;49.836;6.632;2024-01-30T04:24:40;1.40;99.90
39347;DHT22;26262;49.836;6.632;2024-01-30T04:27:06;1.40;99.90
39347;DHT22;26262;49.836;6.632;2024-01-30T04:29:31;1.40;99.90
39347;DHT22;26262;49.836;6.632;2024-01-30T04:31:58;1.40;99.90
39347;DHT22;26262;49.836;6.632;2024-01-30T04:34:23;1.40;99.90
39347;DHT22;26262;49.836;6.632;2024-01-30T04:36:48;1.40;99.90
39347;DHT22;26262;49.836;6.632;2024-01-30T04:39:14;1.40;99.90
39347;DHT22;26262;49.836;6.632;2024-01-30T04:41:39;1.40;99.90
39347;DHT22;26262;49.836;6.632;2024-01-30T04:44:05;1.30;99.90
39347;DHT22;26262;49.836;6.632;2024-01-30T04:46:30;1.30;99.90
39347;DHT22;26262;49.836;6.632;2024-01-30T04:48:55;1.30;99.90
39347;DHT22;26262;49.836;6.632;2024-01-30T04:51:21;1.30;99.90
39347;DHT22;26262;49.836;6.632;2024-01-30T04:53:46;1.30;99.90
39347;DHT22;26262;49.836;6.632;2024-01-30T04:56:12;1.30;99.90
39347;DHT22;26262;49.836;6.632;2024-01-30T04:58:37;1.30;99.90
39347;DHT22;26262;49.836;6.632;2024-01-30T05:01:03;1.30;99.90
39347;DHT22;26262;49.836;6.632;2024-01-30T05:03:28;1.30;99.90
39347;DHT22;26262;49.836;6.632;2024-01-30T05:05:53;1.30;99.90
39347;DHT22;26262;49.836;6.632;2024-01-30T05:08:19;1.30;99.90
39347;DHT22;26262;49.836;6.632;2024-01-30T05:10:44;1.30;99.90
39347;DHT22;26262;49.836;6.632;2024-01-30T05:13:10;1.30;99.90
39347;DHT22;26262;49.836;6.632;2024-01-30T05:15:35;1.30;99.90
39347;DHT22;26262;49.836;6.632;2024-01-30T05:18:01;1.30;99.90
39347;DHT22;26262;49.836;6.632;2024-01-30T05:20:26;1.30;99.90
39347;DHT22;26262;49.836;6.632;2024-01-30T05:22:53;1.30;99.90
39347;DHT22;26262;49.836;6.632;2024-01-30T05:25:19;1.30;99.90
39347;DHT22;26262;49.836;6.632;2024-01-30T05:27:44;1.30;99.90
39347;DHT22;26262;49.836;6.632;2024-01-30T05:30:10;1.30;99.90
39347;DHT22;26262;49.836;6.632;2024-01-30T05:32:35;1.20;99.90
39347;DHT22;26262;49.836;6.632;2024-01-30T05:35:01;1.20;99.90
39347;DHT22;26262;49.836;6.632;2024-01-30T05:37:26;1.20;99.90
39347;DHT22;26262;49.836;6.632;2024-01-30T05:39:52;1.20;99.90
39347;DHT22;26262;49.836;6.632;2024-01-30T05:42:17;1.20;99.90
